createdAt,value
2019-01-18T00:00:11.070Z,9.13
2019-01-18T00:02:38.487Z,8.60
2019-01-18T00:05:05.895Z,9.37
2019-01-18T00:07:33.309Z,9.67
2019-01-18T00:10:00.734Z,9.23
2019-01-18T00:12:28.141Z,8.80
2019-01-18T00:14:55.578Z,10.30
2019-01-18T00:17:22.984Z,10.30
2019-01-18T00:19:50.386Z,10.67
2019-01-18T00:22:17.821Z,11.53
2019-01-18T00:24:45.235Z,11.73
2019-01-18T00:27:12.656Z,13.07
2019-01-18T00:29:40.081Z,13.50
2019-01-18T00:32:07.507Z,14.43
2019-01-18T00:34:34.897Z,13.90
2019-01-18T00:37:02.325Z,14.80
2019-01-18T00:39:29.737Z,15.40
2019-01-18T00:41:57.174Z,15.73
2019-01-18T00:44:24.570Z,16.43
2019-01-18T00:46:52.008Z,15.27
2019-01-18T00:49:19.428Z,16.90
2019-01-18T00:51:46.832Z,16.97
2019-01-18T00:54:14.282Z,16.67
2019-01-18T00:56:41.692Z,17.00
2019-01-18T00:59:09.097Z,17.40
2019-01-18T01:01:36.519Z,17.83
2019-01-18T01:04:03.926Z,17.00
2019-01-18T01:06:31.357Z,18.40
2019-01-18T01:08:58.755Z,16.73
2019-01-18T01:11:26.181Z,16.57
2019-01-18T01:13:53.609Z,16.87
2019-01-18T01:16:21.017Z,16.83
2019-01-18T01:18:48.464Z,15.87
2019-01-18T01:21:15.868Z,16.70
2019-01-18T01:23:43.271Z,15.97
2019-01-18T01:26:10.705Z,17.40
2019-01-18T01:28:38.144Z,17.27
2019-01-18T01:31:05.598Z,17.73
2019-01-18T01:33:32.954Z,18.03
2019-01-18T01:36:00.378Z,15.23
2019-01-18T01:38:27.787Z,15.73
2019-01-18T01:40:55.207Z,15.33
2019-01-18T01:43:22.609Z,15.77
2019-01-18T01:45:50.031Z,16.23
2019-01-18T01:48:17.431Z,16.87
2019-01-18T01:50:44.841Z,15.77
2019-01-18T01:53:12.276Z,16.97
2019-01-18T01:55:39.696Z,17.07
2019-01-18T01:58:07.098Z,14.67
2019-01-18T02:00:34.565Z,16.13
2019-01-18T02:03:02.010Z,14.57
2019-01-18T02:05:29.434Z,14.67
2019-01-18T02:07:56.829Z,14.80
2019-01-18T02:10:24.260Z,15.50
2019-01-18T02:12:51.674Z,13.87
2019-01-18T02:15:19.095Z,13.73
2019-01-18T02:17:46.511Z,15.03
2019-01-18T02:20:13.933Z,14.43
2019-01-18T02:22:41.342Z,13.73
2019-01-18T02:25:08.793Z,13.43
2019-01-18T02:27:36.184Z,13.13
2019-01-18T02:30:03.609Z,13.47
2019-01-18T02:32:31.006Z,13.83
2019-01-18T02:34:58.428Z,13.40
2019-01-18T02:37:25.832Z,13.73
2019-01-18T02:39:53.249Z,12.93
2019-01-18T02:42:20.664Z,14.30
2019-01-18T02:44:48.092Z,13.43
2019-01-18T02:47:15.492Z,13.77
2019-01-18T02:49:42.886Z,12.77
2019-01-18T02:52:10.307Z,13.23
2019-01-18T02:54:37.709Z,13.57
2019-01-18T02:57:05.150Z,14.50
2019-01-18T02:59:32.548Z,13.80
2019-01-18T03:01:59.983Z,13.43
2019-01-18T03:04:27.392Z,12.03
2019-01-18T03:06:54.811Z,13.27
2019-01-18T03:09:22.259Z,11.83
2019-01-18T03:11:49.656Z,14.27
2019-01-18T03:14:17.057Z,13.30
2019-01-18T03:16:44.493Z,13.20
2019-01-18T03:19:11.892Z,13.17
2019-01-18T03:21:39.299Z,14.47
2019-01-18T03:24:06.725Z,14.60
2019-01-18T03:26:34.179Z,14.57
2019-01-18T03:29:01.547Z,14.47
2019-01-18T03:31:28.965Z,14.73
2019-01-18T03:33:56.462Z,15.13
2019-01-18T03:36:23.793Z,14.30
2019-01-18T03:38:51.226Z,13.80
2019-01-18T03:41:18.628Z,14.43
2019-01-18T03:43:46.055Z,12.20
2019-01-18T03:46:13.476Z,13.20
2019-01-18T03:48:40.904Z,13.63
2019-01-18T03:51:08.314Z,12.73
2019-01-18T03:53:35.744Z,13.50
2019-01-18T03:56:03.176Z,13.73
2019-01-18T03:58:30.565Z,13.57
2019-01-18T04:00:57.989Z,13.93
2019-01-18T04:03:25.411Z,12.83
2019-01-18T04:05:52.828Z,13.10
2019-01-18T04:08:20.228Z,13.13
2019-01-18T04:10:47.674Z,13.57
2019-01-18T04:13:15.121Z,13.87
2019-01-18T04:15:42.538Z,13.90
2019-01-18T04:18:09.974Z,15.37
2019-01-18T04:20:37.410Z,13.63
2019-01-18T04:23:04.811Z,13.20
2019-01-18T04:25:32.207Z,15.63
2019-01-18T04:27:59.642Z,15.60
2019-01-18T04:30:33.401Z,13.60
2019-01-18T04:32:54.590Z,14.90
2019-01-18T04:35:22.004Z,14.73
2019-01-18T04:37:49.454Z,15.60
2019-01-18T04:40:19.674Z,15.27
2019-01-18T04:42:47.085Z,15.77
2019-01-18T04:45:14.522Z,16.63
2019-01-18T04:47:41.928Z,15.77
2019-01-18T04:50:12.332Z,15.37
2019-01-18T04:52:39.764Z,16.37
2019-01-18T04:55:07.165Z,15.33
2019-01-18T04:57:34.583Z,16.73
2019-01-18T05:00:01.996Z,16.00
2019-01-18T05:02:29.413Z,15.70
2019-01-18T05:04:56.858Z,16.50
2019-01-18T05:07:24.290Z,16.13
2019-01-18T05:09:51.684Z,15.87
2019-01-18T05:12:19.144Z,15.97
2019-01-18T05:14:46.506Z,16.87
2019-01-18T05:17:13.938Z,15.63
2019-01-18T05:19:41.603Z,16.90
2019-01-18T05:22:08.754Z,18.20
2019-01-18T05:24:36.197Z,17.03
2019-01-18T05:27:03.615Z,16.63
2019-01-18T05:29:31.030Z,16.17
2019-01-18T05:31:58.455Z,17.77
2019-01-18T05:34:25.861Z,16.87
2019-01-18T05:36:53.281Z,18.37
2019-01-18T05:39:20.709Z,19.80
2019-01-18T05:41:48.115Z,16.00
2019-01-18T05:44:15.519Z,18.37
2019-01-18T05:46:42.943Z,19.97
2019-01-18T05:49:10.363Z,19.03
2019-01-18T05:51:37.791Z,17.20
2019-01-18T05:54:05.206Z,19.37
2019-01-18T05:56:32.625Z,20.23
2019-01-18T05:59:00.052Z,20.50
2019-01-18T06:01:27.642Z,20.20
2019-01-18T06:03:54.894Z,19.67
2019-01-18T06:06:22.331Z,21.37
2019-01-18T06:08:49.743Z,22.43
2019-01-18T06:11:17.180Z,22.97
2019-01-18T06:13:44.594Z,19.93
2019-01-18T06:16:12.024Z,20.27
2019-01-18T06:18:39.417Z,21.77
2019-01-18T06:21:06.871Z,19.47
2019-01-18T06:23:34.279Z,21.87
2019-01-18T06:26:01.686Z,20.67
2019-01-18T06:28:29.126Z,20.47
2019-01-18T06:31:01.719Z,19.40
2019-01-18T06:33:23.960Z,21.13
2019-01-18T06:35:51.364Z,22.27
2019-01-18T06:38:18.776Z,21.87
2019-01-18T06:40:46.186Z,21.40
2019-01-18T06:43:13.603Z,22.60
2019-01-18T06:45:41.032Z,21.87
2019-01-18T06:48:08.433Z,19.37
2019-01-18T06:50:35.869Z,20.07
2019-01-18T06:53:03.281Z,38.70
2019-01-18T06:55:30.705Z,22.00
2019-01-18T06:57:58.133Z,24.50
2019-01-18T07:00:25.537Z,22.43
2019-01-18T07:02:52.968Z,22.07
2019-01-18T07:05:20.406Z,22.47
2019-01-18T07:07:47.853Z,23.13
2019-01-18T07:10:20.852Z,20.97
2019-01-18T07:12:45.377Z,21.17
2019-01-18T07:15:12.788Z,21.60
2019-01-18T07:17:40.213Z,22.83
2019-01-18T07:20:07.622Z,20.50
2019-01-18T07:22:35.052Z,19.87
2019-01-18T07:25:02.531Z,23.77
2019-01-18T07:27:29.943Z,25.17
2019-01-18T07:29:57.401Z,21.93
2019-01-18T07:32:24.818Z,21.87
2019-01-18T07:34:52.250Z,23.63
2019-01-18T07:37:19.651Z,24.40
2019-01-18T07:39:47.130Z,22.07
2019-01-18T07:42:14.573Z,22.10
2019-01-18T07:44:42.002Z,22.20
2019-01-18T07:47:09.417Z,21.03
2019-01-18T07:49:36.845Z,24.50
2019-01-18T07:52:04.279Z,23.37
2019-01-18T07:54:31.702Z,26.23
2019-01-18T07:56:59.128Z,25.73
2019-01-18T07:59:26.524Z,22.50
2019-01-18T08:01:53.968Z,20.87
2019-01-18T08:04:21.433Z,23.63
2019-01-18T08:06:48.843Z,25.13
2019-01-18T08:09:16.300Z,28.17
2019-01-18T08:11:43.730Z,32.03
2019-01-18T08:14:11.142Z,30.97
2019-01-18T08:16:38.532Z,30.60
2019-01-18T08:19:05.980Z,23.57
2019-01-18T08:21:33.413Z,21.07
2019-01-18T08:24:00.841Z,21.13
2019-01-18T08:26:28.250Z,22.90
2019-01-18T08:28:55.723Z,24.60
2019-01-18T08:31:28.671Z,22.63
2019-01-18T08:33:50.544Z,21.73
2019-01-18T08:36:17.949Z,20.60
2019-01-18T08:38:45.364Z,24.53
2019-01-18T08:41:12.768Z,22.77
2019-01-18T08:43:40.195Z,24.17
2019-01-18T08:46:07.616Z,23.50
2019-01-18T08:48:35.032Z,22.90
2019-01-18T08:51:03.866Z,24.77
2019-01-18T08:53:29.927Z,23.93
2019-01-18T08:55:57.363Z,21.93
2019-01-18T08:58:24.775Z,24.20
2019-01-18T09:00:52.219Z,29.73
2019-01-18T09:03:19.638Z,26.53
2019-01-18T09:05:47.057Z,31.50
2019-01-18T09:08:14.502Z,29.53
2019-01-18T09:10:41.886Z,31.53
2019-01-18T09:13:09.291Z,41.17
2019-01-18T09:15:36.731Z,34.10
2019-01-18T09:18:04.131Z,32.00
2019-01-18T09:20:31.549Z,28.37
2019-01-18T09:22:59.002Z,28.70
2019-01-18T09:25:26.456Z,27.30
2019-01-18T09:27:53.865Z,26.87
2019-01-18T09:30:24.284Z,27.43
2019-01-18T09:32:51.660Z,22.97
2019-01-18T09:35:19.061Z,23.30
2019-01-18T09:37:46.499Z,25.40
2019-01-18T09:40:13.911Z,25.33
2019-01-18T09:42:41.335Z,25.50
2019-01-18T09:45:08.743Z,27.67
2019-01-18T09:47:36.184Z,31.33
2019-01-18T09:50:03.596Z,27.10
2019-01-18T09:52:31.023Z,26.60
2019-01-18T09:54:58.418Z,27.90
2019-01-18T09:57:25.846Z,35.00
2019-01-18T09:59:53.259Z,29.20
2019-01-18T10:02:20.661Z,29.17
2019-01-18T10:04:48.101Z,29.07
2019-01-18T10:07:15.511Z,29.00
2019-01-18T10:09:42.952Z,35.63
2019-01-18T10:12:10.362Z,31.63
2019-01-18T10:14:37.771Z,31.10
2019-01-18T10:17:05.250Z,30.50
2019-01-18T10:19:32.643Z,33.73
2019-01-18T10:22:00.067Z,28.77
2019-01-18T10:24:27.485Z,29.40
2019-01-18T10:26:54.927Z,31.97
2019-01-18T10:29:28.020Z,27.27
2019-01-18T10:31:55.871Z,28.40
2019-01-18T10:34:17.164Z,35.17
2019-01-18T10:36:44.607Z,33.57
2019-01-18T10:39:12.011Z,30.03
2019-01-18T10:41:39.445Z,39.13
2019-01-18T10:44:06.843Z,32.10
2019-01-18T10:46:34.281Z,35.23
2019-01-18T10:49:01.707Z,35.00
2019-01-18T10:51:29.111Z,35.23
2019-01-18T10:53:56.527Z,34.80
2019-01-18T10:56:23.953Z,23.13
2019-01-18T10:58:53.952Z,32.03
2019-01-18T11:01:21.348Z,33.43
2019-01-18T11:03:48.756Z,31.60
2019-01-18T11:06:16.229Z,28.90
2019-01-18T11:08:43.605Z,28.43
2019-01-18T11:11:11.022Z,26.93
2019-01-18T11:13:38.452Z,28.70
2019-01-18T11:16:05.953Z,29.60
2019-01-18T11:18:33.378Z,28.50
2019-01-18T11:21:00.839Z,33.77
2019-01-18T11:23:28.230Z,31.20
2019-01-18T11:25:55.667Z,34.03
2019-01-18T11:28:23.076Z,33.13
2019-01-18T11:30:50.510Z,33.23
2019-01-18T11:33:17.939Z,39.60
2019-01-18T11:35:45.355Z,35.40
2019-01-18T11:38:12.819Z,36.33
2019-01-18T11:40:40.328Z,34.43
2019-01-18T11:43:07.790Z,32.70
2019-01-18T11:45:35.188Z,31.07
2019-01-18T11:48:02.610Z,28.83
2019-01-18T11:50:30.022Z,31.13
2019-01-18T11:52:57.440Z,33.07
2019-01-18T11:55:24.869Z,29.00
2019-01-18T11:57:52.266Z,28.10
2019-01-18T12:00:28.548Z,28.33
2019-01-18T12:02:55.939Z,28.30
2019-01-18T12:05:23.343Z,26.87
2019-01-18T12:07:50.773Z,26.87
2019-01-18T12:10:21.323Z,28.27
2019-01-18T12:12:48.753Z,24.90
2019-01-18T12:15:16.150Z,26.67
2019-01-18T12:17:43.749Z,29.47
2019-01-18T12:20:13.940Z,28.70
2019-01-18T12:22:41.344Z,27.20
2019-01-18T12:25:08.765Z,25.80
2019-01-18T12:27:36.171Z,26.93
2019-01-18T12:30:03.607Z,27.40
2019-01-18T12:32:31.013Z,27.83
2019-01-18T12:34:58.455Z,25.37
2019-01-18T12:37:25.863Z,26.43
2019-01-18T12:39:53.265Z,25.33
2019-01-18T12:42:20.682Z,27.50
2019-01-18T12:44:48.096Z,26.77
2019-01-18T12:47:15.516Z,25.93
2019-01-18T12:49:42.917Z,28.77
2019-01-18T12:52:10.340Z,25.57
2019-01-18T12:54:37.821Z,25.20
2019-01-18T12:57:05.191Z,25.60
2019-01-18T12:59:32.583Z,23.90
2019-01-18T13:01:59.997Z,24.60
2019-01-18T13:04:27.404Z,26.90
2019-01-18T13:06:54.826Z,24.97
2019-01-18T13:09:22.235Z,22.73
2019-01-18T13:11:49.656Z,24.67
2019-01-18T13:14:17.069Z,23.50
2019-01-18T13:16:44.487Z,22.80
2019-01-18T13:19:11.940Z,22.43
2019-01-18T13:21:39.368Z,24.33
2019-01-18T13:24:06.775Z,22.50
2019-01-18T13:26:34.184Z,25.80
2019-01-18T13:29:01.609Z,24.10
2019-01-18T13:31:29.008Z,23.33
2019-01-18T13:33:56.427Z,22.53
2019-01-18T13:36:23.819Z,20.63
2019-01-18T13:38:51.239Z,20.90
2019-01-18T13:41:18.669Z,20.43
2019-01-18T13:43:46.094Z,19.27
2019-01-18T13:46:13.503Z,18.10
2019-01-18T13:48:40.929Z,19.40
2019-01-18T13:51:08.327Z,18.13
2019-01-18T13:53:35.758Z,17.70
2019-01-18T13:56:03.163Z,17.17
2019-01-18T13:58:30.561Z,17.03
2019-01-18T14:00:58.002Z,18.77
2019-01-18T14:03:25.435Z,21.03
2019-01-18T14:05:52.839Z,17.60
2019-01-18T14:08:20.282Z,18.40
2019-01-18T14:10:47.706Z,19.07
2019-01-18T14:13:15.095Z,20.47
2019-01-18T14:15:42.652Z,18.33
2019-01-18T14:18:10.048Z,17.37
2019-01-18T14:20:37.464Z,18.60
2019-01-18T14:23:04.869Z,16.20
2019-01-18T14:25:32.290Z,18.50
2019-01-18T14:27:59.677Z,19.87
2019-01-18T14:30:27.101Z,20.20
2019-01-18T14:32:55.624Z,16.90
2019-01-18T14:35:21.906Z,17.77
2019-01-18T14:37:49.337Z,16.50
2019-01-18T14:40:16.738Z,16.80
2019-01-18T14:42:44.174Z,16.37
2019-01-18T14:45:14.209Z,16.83
2019-01-18T14:47:41.642Z,17.33
2019-01-18T14:50:09.149Z,23.83
2019-01-18T14:52:36.557Z,17.57
2019-01-18T14:55:03.961Z,18.07
2019-01-18T14:57:31.375Z,17.70
2019-01-18T14:59:58.778Z,16.20
2019-01-18T15:02:26.197Z,16.00
2019-01-18T15:04:53.608Z,15.90
2019-01-18T15:07:21.046Z,16.10
2019-01-18T15:09:48.441Z,18.70
2019-01-18T15:12:15.993Z,17.40
2019-01-18T15:14:43.377Z,17.93
2019-01-18T15:17:10.807Z,17.90
2019-01-18T15:19:38.202Z,16.33
2019-01-18T15:22:05.630Z,17.67
2019-01-18T15:24:33.049Z,16.83
2019-01-18T15:37:14.738Z,20.23
2019-01-18T15:39:42.148Z,21.73
2019-01-18T15:50:28.805Z,20.80
2019-01-18T15:52:56.226Z,20.17
2019-01-18T15:55:23.647Z,21.40
2019-01-18T15:57:51.049Z,20.80
2019-01-18T16:00:18.474Z,23.00
2019-01-18T16:02:45.875Z,21.27
2019-01-18T16:05:13.313Z,22.63
2019-01-18T16:07:40.729Z,23.80
2019-01-18T16:10:08.130Z,21.13
2019-01-18T16:12:35.566Z,20.77
2019-01-18T16:15:02.994Z,23.50
2019-01-18T16:17:31.668Z,30.20
2019-01-18T16:19:57.863Z,30.63
2019-01-18T16:22:25.321Z,25.33
2019-01-18T16:24:52.727Z,21.83
2019-01-18T16:27:20.144Z,22.90
2019-01-18T16:29:47.551Z,25.73
2019-01-18T16:32:14.985Z,27.27
2019-01-18T16:34:42.382Z,24.90
2019-01-18T16:37:09.818Z,25.80
2019-01-18T16:39:37.226Z,27.43
2019-01-18T16:42:04.655Z,32.03
2019-01-18T16:44:34.903Z,25.50
2019-01-18T16:47:02.362Z,25.47
2019-01-18T16:49:29.763Z,26.57
2019-01-18T16:52:02.822Z,26.47
2019-01-18T16:54:30.269Z,27.47
2019-01-18T16:56:57.670Z,28.13
2019-01-18T16:59:25.061Z,27.53
2019-01-18T17:01:52.497Z,29.40
2019-01-18T17:04:19.971Z,30.20
2019-01-18T17:06:47.409Z,28.30
2019-01-18T17:09:14.811Z,28.03
2019-01-18T17:11:42.265Z,29.73
2019-01-18T17:14:09.675Z,33.17
2019-01-18T17:16:37.087Z,33.10
2019-01-18T17:19:04.524Z,37.17
2019-01-18T17:21:31.933Z,36.13
2019-01-18T17:23:59.369Z,35.47
2019-01-18T17:26:27.622Z,38.50
2019-01-18T17:28:55.066Z,38.33
2019-01-18T17:31:22.480Z,37.57
2019-01-18T17:33:50.168Z,40.80
2019-01-18T17:36:17.614Z,43.70
2019-01-18T17:38:59.857Z,46.53
2019-01-18T17:41:51.545Z,45.20
2019-01-18T17:44:24.884Z,50.30
2019-01-18T17:47:12.980Z,51.73
2019-01-18T17:49:46.073Z,47.10
2019-01-18T17:52:16.024Z,47.53
2019-01-18T17:54:43.447Z,49.03
2019-01-18T17:57:22.777Z,56.93
2019-01-18T18:00:14.735Z,51.80
2019-01-18T18:02:45.086Z,46.50
2019-01-18T18:05:27.154Z,43.03
2019-01-18T18:08:00.618Z,49.83
2019-01-18T18:10:40.076Z,50.63
2019-01-18T18:13:12.993Z,51.23
2019-01-18T18:15:43.307Z,44.47
2019-01-18T18:18:19.352Z,41.50
2019-01-18T18:20:49.353Z,43.33
2019-01-18T18:23:19.803Z,46.27
2019-01-18T18:26:05.522Z,40.50
2019-01-18T18:28:51.729Z,48.23
2019-01-18T18:31:37.334Z,44.00
2019-01-18T18:34:22.420Z,48.83
2019-01-18T18:36:55.972Z,53.17
2019-01-18T18:39:23.395Z,46.20
2019-01-18T18:42:02.767Z,43.97
2019-01-18T18:44:48.475Z,54.83
2019-01-18T18:47:15.903Z,42.93
2019-01-18T18:49:54.910Z,49.40
2019-01-18T18:52:55.282Z,44.07
2019-01-18T18:55:43.709Z,44.80
2019-01-18T18:58:41.232Z,47.30
2019-01-18T19:01:11.478Z,55.33
2019-01-18T19:03:57.505Z,43.27
2019-01-18T19:06:36.356Z,50.23
2019-01-18T19:09:18.597Z,48.00
2019-01-18T19:11:51.755Z,46.67
2019-01-18T19:14:38.344Z,45.27
2019-01-18T19:17:10.094Z,45.80
2019-01-18T19:19:40.092Z,43.90
2019-01-18T19:22:09.922Z,43.60
2019-01-18T19:25:10.452Z,44.47
2019-01-18T19:27:40.480Z,40.87
2019-01-18T19:30:28.563Z,47.53
2019-01-18T19:33:04.746Z,40.87
2019-01-18T19:35:40.348Z,44.97
2019-01-18T19:38:34.533Z,50.50
2019-01-18T19:41:04.725Z,42.23
2019-01-18T19:43:32.180Z,41.83
2019-01-18T19:46:17.571Z,40.97
2019-01-18T19:48:47.717Z,49.60
2019-01-18T19:51:15.146Z,41.87
2019-01-18T19:53:48.343Z,43.87
2019-01-18T19:56:15.778Z,46.63
2019-01-18T19:58:55.071Z,40.63
2019-01-18T20:01:25.232Z,47.60
2019-01-18T20:03:57.911Z,46.67
2019-01-18T20:06:53.132Z,44.53
2019-01-18T20:09:44.560Z,45.97
2019-01-18T20:12:36.376Z,51.00
2019-01-18T20:15:21.908Z,41.67
2019-01-18T20:17:51.903Z,50.63
2019-01-18T20:20:21.882Z,50.10
2019-01-18T20:22:58.255Z,50.80
2019-01-18T20:25:31.817Z,50.00
2019-01-18T20:27:59.224Z,47.73
2019-01-18T20:30:35.128Z,43.73
2019-01-18T20:33:08.177Z,52.33
2019-01-18T20:36:03.293Z,40.93
2019-01-18T20:38:38.932Z,51.00
2019-01-18T20:41:12.062Z,40.00
2019-01-18T20:43:51.679Z,40.27
2019-01-18T20:46:19.149Z,39.73
2019-01-18T20:48:49.334Z,39.70
2019-01-18T20:51:22.003Z,38.10
2019-01-18T20:54:13.968Z,41.13
2019-01-18T20:56:59.168Z,37.63
2019-01-18T20:59:35.554Z,41.87
2019-01-18T21:02:15.260Z,43.50
2019-01-18T21:04:42.706Z,38.80
2019-01-18T21:10:03.972Z,43.50
2019-01-18T21:12:58.057Z,36.20
2019-01-18T21:15:46.617Z,33.47
2019-01-18T21:18:22.386Z,30.73
2019-01-18T21:20:55.291Z,32.37
2019-01-18T21:23:25.688Z,35.30
2019-01-18T21:25:58.825Z,28.07
2019-01-18T21:28:32.081Z,28.23
2019-01-18T21:31:05.030Z,29.83
2019-01-18T21:33:35.527Z,25.93
2019-01-18T21:36:11.513Z,28.03
2019-01-18T21:38:56.709Z,26.80
2019-01-18T21:41:29.696Z,26.90
2019-01-18T21:44:02.953Z,28.47
2019-01-18T21:46:30.409Z,24.87
2019-01-18T21:49:00.664Z,23.00
2019-01-18T21:51:46.377Z,21.40
2019-01-18T21:54:16.390Z,23.10
2019-01-18T21:57:02.066Z,22.87
2019-01-18T21:59:37.966Z,24.07
2019-01-18T22:02:20.436Z,22.43
2019-01-18T22:04:59.743Z,25.30
2019-01-18T22:07:38.985Z,25.73
2019-01-18T22:10:15.418Z,23.10
2019-01-18T22:12:45.738Z,26.53
2019-01-18T22:15:20.104Z,25.47
2019-01-18T22:17:59.223Z,25.10
2019-01-18T22:20:38.053Z,25.47
2019-01-18T22:23:05.490Z,25.13
2019-01-18T22:25:44.700Z,23.50
2019-01-18T22:28:17.833Z,20.53
2019-01-18T22:31:06.238Z,22.87
2019-01-18T22:33:51.990Z,20.67
2019-01-18T22:36:49.866Z,21.10
2019-01-18T22:39:47.394Z,21.87
2019-01-18T22:42:23.701Z,21.47
2019-01-18T22:44:57.057Z,20.27
2019-01-18T22:47:38.974Z,19.63
2019-01-18T22:50:15.555Z,20.87
2019-01-18T22:52:46.065Z,20.23
2019-01-18T22:55:19.432Z,18.07
2019-01-18T22:58:04.981Z,19.83
2019-01-18T23:00:58.963Z,18.80
2019-01-18T23:03:38.340Z,18.77
2019-01-18T23:06:14.496Z,20.33
2019-01-18T23:08:47.148Z,19.07
2019-01-18T23:11:14.546Z,20.63
2019-01-18T23:14:00.528Z,19.10
2019-01-18T23:16:33.900Z,19.00
2019-01-18T23:19:05.426Z,18.27
2019-01-18T23:22:10.003Z,17.30
2019-01-18T23:24:46.069Z,18.73
2019-01-18T23:27:34.601Z,17.40
2019-01-18T23:30:07.665Z,16.07
2019-01-18T23:32:50.800Z,17.37
2019-01-18T23:35:31.449Z,16.10
2019-01-18T23:38:08.256Z,15.90
2019-01-18T23:40:56.017Z,15.23
2019-01-18T23:43:41.282Z,15.63
2019-01-18T23:46:08.686Z,15.80
2019-01-18T23:48:44.860Z,16.43
2019-01-18T23:51:36.054Z,16.57
2019-01-18T23:54:21.334Z,15.77
2019-01-18T23:56:56.951Z,16.00
2019-01-18T23:59:24.419Z,15.67
